Time;durP1;ratioP1;P1;durP2;ratioP2;P2;SDS_P1;SDS_P2;PMS_P1;PMS_P2;Temp;Humidity;BMP_temperature;BMP_pressure;BME280_temperature;BME280_humidity;BME280_pressure;Samples;Min_cycle;Max_cycle;Signal;HPM_P1;HPM_P2
2023/04/17 00:00:50;;;;;;;;;5.50;4.25;;;;;13.44;45.90;101923.44;2103794;28;46906;-63
2023/04/17 00:01:51;;;;;;;;;5.25;5.25;;;;;13.41;45.89;101921.69;2097588;28;46746;-63
2023/04/17 00:02:51;;;;;;;;;6.25;5.00;;;;;13.40;45.90;101925.25;2088027;28;46626;-63
2023/04/17 00:03:52;;;;;;;;;6.25;5.00;;;;;13.38;45.89;101921.75;2090450;28;46723;-64
2023/04/17 00:04:53;;;;;;;;;4.50;4.50;;;;;13.38;46.00;101921.75;2098057;28;46287;-63
2023/04/17 00:05:55;;;;;;;;;3.25;3.25;;;;;13.39;45.95;101925.28;2088246;28;46731;-63
2023/04/17 00:06:55;;;;;;;;;6.40;6.20;;;;;13.37;46.07;101919.09;2088868;28;46330;-64
2023/04/17 00:07:57;;;;;;;;;4.75;4.75;;;;;13.37;46.15;101924.44;2097612;28;45441;-63
2023/04/17 00:08:57;;;;;;;;;4.80;4.80;;;;;13.36;45.89;101920.00;2097004;28;46857;-63
2023/04/17 00:09:57;;;;;;;;;5.25;5.25;;;;;13.34;46.04;101912.03;2097574;28;46214;-62
2023/04/17 00:10:58;;;;;;;;;4.75;4.50;;;;;13.34;45.84;101916.47;2099969;28;46389;-64
2023/04/17 00:11:58;;;;;;;;;3.67;3.67;;;;;13.34;46.07;101919.13;2097702;28;46575;-64
2023/04/17 00:12:58;;;;;;;;;5.50;5.00;;;;;13.33;46.05;101914.69;2097636;28;45921;-65
2023/04/17 00:13:59;;;;;;;;;4.00;4.00;;;;;13.32;46.15;101912.94;2097464;28;46715;-66
2023/04/17 00:14:59;;;;;;;;;4.50;4.50;;;;;13.32;46.03;101915.59;2097318;28;46864;-65
2023/04/17 00:16:00;;;;;;;;;6.00;5.00;;;;;13.30;46.20;101909.41;2097176;28;46650;-64
2023/04/17 00:17:00;;;;;;;;;7.50;5.75;;;;;13.29;46.33;101905.00;2097878;28;45749;-65
2023/04/17 00:18:00;;;;;;;;;6.00;6.00;;;;;13.28;46.18;101912.09;2079340;28;45514;-64
2023/04/17 00:19:01;;;;;;;;;5.25;4.00;;;;;13.26;46.31;101908.59;2075701;28;46377;-63
2023/04/17 00:20:05;;;;;;;;;5.75;5.75;;;;;13.26;46.37;101911.25;2079554;28;46490;-65
2023/04/17 00:21:06;;;;;;;;;5.00;5.00;;;;;13.25;46.10;101906.81;2078729;28;46781;-63
2023/04/17 00:22:06;;;;;;;;;4.00;4.00;;;;;13.23;46.24;101897.97;2075983;28;46415;-63
2023/04/17 00:23:06;;;;;;;;;4.50;4.25;;;;;13.23;46.33;101904.19;2079493;28;46819;-63
2023/04/17 00:24:07;;;;;;;;;6.00;5.00;;;;;13.22;46.24;101897.09;2071427;28;46351;-62
2023/04/17 00:25:09;;;;;;;;;6.25;5.00;;;;;13.22;46.19;101906.88;2071585;28;46477;-63
2023/04/17 00:26:10;;;;;;;;;4.80;4.80;;;;;13.20;45.88;101906.88;2088338;28;45382;-64
2023/04/17 00:27:10;;;;;;;;;6.00;5.00;;;;;13.21;46.36;101902.41;2086155;28;46295;-64
2023/04/17 00:28:11;;;;;;;;;4.00;4.00;;;;;13.20;46.21;101898.00;2071363;28;46133;-63
2023/04/17 00:29:11;;;;;;;;;5.00;5.00;;;;;13.19;46.42;101902.44;2071112;28;46470;-65
2023/04/17 00:30:11;;;;;;;;;4.75;4.75;;;;;13.19;46.35;101901.56;2079756;28;46173;-63
2023/04/17 00:31:12;;;;;;;;;4.00;4.00;;;;;13.18;46.61;101898.00;2071724;28;45444;-65
2023/04/17 00:32:12;;;;;;;;;6.00;4.25;;;;;13.17;46.45;101893.56;2076627;28;46877;-65
2023/04/17 00:33:12;;;;;;;;;4.50;4.50;;;;;13.18;46.18;101905.09;2087294;28;46686;-64
2023/04/17 00:34:13;;;;;;;;;5.00;5.00;;;;;13.18;46.36;101900.69;2079314;28;46264;-64
2023/04/17 00:35:13;;;;;;;;;4.00;3.00;;;;;13.19;46.25;101904.22;2079540;28;46473;-64
2023/04/17 00:36:14;;;;;;;;;6.00;5.00;;;;;13.19;46.33;101901.56;2080041;28;45431;-64
2023/04/17 00:37:15;;;;;;;;;7.00;6.50;;;;;13.19;46.51;101901.56;2071203;28;46492;-64
2023/04/17 00:38:16;;;;;;;;;5.60;5.60;;;;;13.18;46.21;101900.69;2071289;28;46832;-64
2023/04/17 00:39:16;;;;;;;;;5.20;5.20;;;;;13.17;46.33;101896.22;2079919;28;45610;-64
2023/04/17 00:40:17;;;;;;;;;5.00;5.00;;;;;13.18;46.44;101905.09;2071927;28;45647;-63
2023/04/17 00:41:17;;;;;;;;;5.75;5.75;;;;;13.17;46.47;101898.00;2071198;28;45622;-64
2023/04/17 00:42:17;;;;;;;;;4.00;4.00;;;;;13.16;46.36;101899.78;2079210;28;46191;-63
2023/04/17 00:43:18;;;;;;;;;6.00;6.00;;;;;13.17;46.40;101898.88;2079551;28;45224;-63
2023/04/17 00:44:18;;;;;;;;;6.00;5.00;;;;;13.16;46.25;101897.13;2079434;28;45519;-65
2023/04/17 00:45:19;;;;;;;;;4.00;3.50;;;;;13.16;46.17;101897.13;2071348;28;45978;-65
2023/04/17 00:46:20;;;;;;;;;4.20;4.20;;;;;13.15;46.22;101895.38;2072418;28;46782;-66
2023/04/17 00:47:21;;;;;;;;;3.25;3.25;;;;;13.14;46.33;101898.94;2079536;28;46738;-64
2023/04/17 00:48:23;;;;;;;;;7.20;6.40;;;;;13.13;46.67;101893.63;2079340;28;46383;-64
2023/04/17 00:49:24;;;;;;;;;4.80;4.80;;;;;13.13;46.41;101888.28;2073673;28;46316;-65
2023/04/17 00:50:27;;;;;;;;;5.80;5.00;;;;;13.12;46.30;101889.19;2088523;28;45660;-64
2023/04/17 00:51:27;;;;;;;;;5.40;4.20;;;;;13.10;46.12;101886.56;2096995;28;46314;-64
2023/04/17 00:52:29;;;;;;;;;6.25;4.75;;;;;13.11;46.41;101892.78;2097072;28;46459;-64
2023/04/17 00:53:30;;;;;;;;;5.60;5.20;;;;;13.10;46.45;101885.69;2096796;28;46497;-64
2023/04/17 00:54:31;;;;;;;;;3.00;3.00;;;;;13.08;46.26;101885.66;2099464;28;46846;-64
2023/04/17 00:55:34;;;;;;;;;4.60;4.60;;;;;13.08;46.31;101884.78;2097189;28;46753;-64
2023/04/17 00:56:35;;;;;;;;;6.00;5.40;;;;;13.08;46.46;101887.47;2096650;28;46942;-64
2023/04/17 00:57:35;;;;;;;;;5.00;5.00;;;;;13.06;46.54;101878.59;2099547;28;46731;-63
2023/04/17 00:58:36;;;;;;;;;8.00;6.00;;;;;13.05;46.56;101883.06;2087045;28;46755;-63
2023/04/17 00:59:37;;;;;;;;;4.00;4.00;;;;;13.05;46.54;101880.38;2086989;28;45561;-64
2023/04/17 01:00:38;;;;;;;;;5.40;5.20;;;;;13.06;46.55;101873.28;2096729;28;45205;-64
2023/04/17 01:01:38;;;;;;;;;5.75;5.25;;;;;13.06;46.47;101879.47;2097996;28;46273;-64
2023/04/17 01:02:39;;;;;;;;;7.00;6.00;;;;;13.04;46.73;101872.41;2093009;28;46070;-64
2023/04/17 01:03:40;;;;;;;;;5.00;5.00;;;;;13.04;46.66;101875.97;2096751;28;46722;-66
2023/04/17 01:04:40;;;;;;;;;5.75;5.75;;;;;13.03;46.64;101874.22;2102360;28;46609;-65
2023/04/17 01:05:41;;;;;;;;;6.00;5.25;;;;;13.03;46.73;101871.53;2104417;28;45842;-64
2023/04/17 01:06:42;;;;;;;;;1.00;1.00;;;;;13.04;46.68;101869.75;2097189;28;45730;-65
2023/04/17 01:07:44;;;;;;;;;5.75;5.75;;;;;13.03;46.91;101873.31;2096891;28;46635;-64
2023/04/17 01:08:44;;;;;;;;;6.00;6.00;;;;;13.03;46.74;101874.22;2096914;28;45542;-64
2023/04/17 01:09:45;;;;;;;;;7.00;7.00;;;;;13.03;46.76;101870.66;2096942;28;46719;-64
2023/04/17 01:10:45;;;;;;;;;6.00;6.00;;;;;13.01;46.70;101873.34;2098617;28;46252;-65
2023/04/17 01:11:45;;;;;;;;;5.50;5.50;;;;;13.01;46.83;101873.34;2099770;28;46634;-64
2023/04/17 01:12:48;;;;;;;;;7.25;7.25;;;;;12.99;46.84;101866.28;2097054;28;46818;-64
2023/04/17 01:13:49;;;;;;;;;5.60;5.60;;;;;12.99;47.03;101871.63;2096596;28;46655;-65
2023/04/17 01:14:55;;;;;;;;;5.80;5.80;;;;;12.98;46.94;101868.06;2096904;28;46997;-64
2023/04/17 01:15:55;;;;;;;;;5.40;5.40;;;;;12.97;47.00;101863.66;2097102;28;46346;-65
2023/04/17 01:16:56;;;;;;;;;7.00;6.00;;;;;12.98;47.08;101869.84;2096835;28;45775;-65
2023/04/17 01:17:57;;;;;;;;;6.00;6.00;;;;;12.98;47.00;101868.06;2087979;28;46145;-64
2023/04/17 01:18:58;;;;;;;;;6.20;6.00;;;;;12.97;46.85;101868.97;2088628;28;46590;-64
2023/04/17 01:19:58;;;;;;;;;5.75;5.50;;;;;12.95;47.19;101862.75;2097357;28;45016;-63
2023/04/17 01:21:00;;;;;;;;;8.75;7.50;;;;;12.94;47.12;101869.00;2096771;28;46461;-63
2023/04/17 01:22:00;;;;;;;;;10.80;10.80;;;;;12.92;47.07;101865.47;2098421;28;45819;-65
2023/04/17 01:23:00;;;;;;;;;8.00;8.00;;;;;12.92;47.06;101863.69;2102441;28;45563;-65
2023/04/17 01:24:02;;;;;;;;;5.00;4.75;;;;;12.90;47.07;101864.59;2101847;28;46567;-64
2023/04/17 01:25:04;;;;;;;;;6.80;5.80;;;;;12.90;47.28;101868.16;2096328;28;47449;-64
2023/04/17 01:26:04;;;;;;;;;6.20;6.00;;;;;12.91;47.30;101866.38;2100973;28;46615;-64
2023/04/17 01:27:05;;;;;;;;;7.25;6.75;;;;;12.89;47.01;101868.19;2096510;28;46501;-64
2023/04/17 01:28:06;;;;;;;;;6.00;6.00;;;;;12.88;47.28;101866.41;2096746;28;46507;-64
2023/04/17 01:29:07;;;;;;;;;6.50;6.00;;;;;12.87;47.29;101864.66;2082737;28;45088;-64
2023/04/17 01:30:08;;;;;;;;;6.00;6.00;;;;;12.86;47.20;101871.78;2087931;28;46213;-64
2023/04/17 01:31:13;;;;;;;;;7.20;5.60;;;;;12.84;47.22;101873.56;2096617;28;46481;-64
2023/04/17 01:32:15;;;;;;;;;5.40;5.40;;;;;12.84;47.18;101870.03;2098741;28;46368;-63
2023/04/17 01:33:15;;;;;;;;;7.20;6.40;;;;;12.82;47.31;101867.34;2105727;28;46203;-63
2023/04/17 01:34:15;;;;;;;;;7.25;6.00;;;;;12.82;47.47;101874.47;2096747;28;46662;-65
2023/04/17 01:35:16;;;;;;;;;7.00;5.25;;;;;12.82;47.34;101866.47;2097001;28;46208;-64
2023/04/17 01:36:17;;;;;;;;;4.00;4.00;;;;;12.82;47.40;101869.16;2097281;28;46075;-64
2023/04/17 01:37:17;;;;;;;;;3.00;3.00;;;;;12.82;47.31;101866.47;2096467;28;46475;-64
2023/04/17 01:38:17;;;;;;;;;4.75;4.75;;;;;12.80;47.46;101873.63;2098000;28;46458;-63
2023/04/17 01:39:18;;;;;;;;;4.50;4.50;;;;;12.80;47.47;101869.16;2098446;28;46055;-64
2023/04/17 01:40:18;;;;;;;;;5.00;5.00;;;;;12.78;47.52;101868.31;2098417;28;46329;-63
2023/04/17 01:41:18;;;;;;;;;5.00;5.00;;;;;12.78;47.45;101870.09;2105316;28;46923;-64
2023/04/17 01:42:19;;;;;;;;;5.00;5.00;;;;;12.76;47.62;101874.56;2096037;28;46663;-64
2023/04/17 01:43:19;;;;;;;;;6.25;6.25;;;;;12.76;47.58;101864.78;2091052;28;46671;-65
2023/04/17 01:44:20;;;;;;;;;6.25;6.25;;;;;12.76;47.47;101871.91;2087818;28;47029;-64
2023/04/17 01:45:20;;;;;;;;;5.00;5.00;;;;;12.75;47.54;101872.81;2096780;28;46604;-63
2023/04/17 01:46:20;;;;;;;;;7.25;6.00;;;;;12.74;47.71;101874.59;2099564;28;46500;-64
2023/04/17 01:47:21;;;;;;;;;6.75;5.75;;;;;12.73;47.64;101874.59;2097116;28;45149;-64
2023/04/17 01:48:21;;;;;;;;;4.25;4.25;;;;;12.71;47.66;101874.63;2099057;28;46453;-64
2023/04/17 01:49:21;;;;;;;;;6.25;6.25;;;;;12.71;47.95;101871.09;2087017;28;44964;-65
2023/04/17 01:50:22;;;;;;;;;7.25;5.75;;;;;12.70;47.73;101878.16;2087098;28;46367;-64
2023/04/17 01:51:22;;;;;;;;;6.75;6.75;;;;;12.67;47.71;101873.75;2096907;28;45906;-64
2023/04/17 01:52:22;;;;;;;;;5.50;5.00;;;;;12.66;47.79;101873.78;2096842;28;46702;-64
2023/04/17 01:53:23;;;;;;;;;5.00;5.00;;;;;12.63;48.08;101874.72;2087428;28;46440;-64
2023/04/17 01:54:23;;;;;;;;;7.00;7.00;;;;;12.61;47.84;101879.19;2091242;28;46430;-63
2023/04/17 01:55:24;;;;;;;;;8.00;6.75;;;;;12.60;47.75;101873.88;2096776;28;46295;-64
2023/04/17 01:56:24;;;;;;;;;4.50;4.50;;;;;12.59;48.03;101872.09;2079306;28;46053;-64
2023/04/17 01:57:25;;;;;;;;;6.50;6.50;;;;;12.57;47.97;101872.09;2082195;28;46964;-63
2023/04/17 01:58:25;;;;;;;;;6.25;6.00;;;;;12.56;47.87;101877.44;2097221;28;46524;-64
2023/04/17 01:59:26;;;;;;;;;6.00;6.00;;;;;12.55;48.05;101871.25;2097303;28;46358;-63
2023/04/17 02:00:26;;;;;;;;;4.00;3.00;;;;;12.55;48.16;101873.03;2103711;28;47002;-64
2023/04/17 02:01:26;;;;;;;;;6.00;6.00;;;;;12.55;48.14;101873.91;2097223;28;46664;-64
2023/04/17 02:02:26;;;;;;;;;7.00;7.00;;;;;12.54;48.12;101879.25;2096423;28;46370;-64
2023/04/17 02:03:27;;;;;;;;;5.00;5.00;;;;;12.53;48.52;101873.03;2096399;28;46530;-64
2023/04/17 02:04:27;;;;;;;;;9.00;9.00;;;;;12.54;48.23;101871.25;2097433;28;45566;-65
2023/04/17 02:05:27;;;;;;;;;6.00;5.00;;;;;12.52;48.35;101873.94;2079235;28;46355;-65
2023/04/17 02:06:28;;;;;;;;;5.50;5.50;;;;;12.51;48.34;101869.53;2079700;28;46392;-64
2023/04/17 02:07:28;;;;;;;;;7.00;7.00;;;;;12.51;48.24;101872.19;2097247;28;46806;-64
2023/04/17 02:08:28;;;;;;;;;6.00;6.00;;;;;12.52;48.34;101876.59;2096502;28;46317;-63
2023/04/17 02:09:29;;;;;;;;;7.50;7.00;;;;;12.51;48.36;101868.66;2096509;28;46346;-65
2023/04/17 02:10:29;;;;;;;;;7.00;7.00;;;;;12.49;48.34;101873.09;2096727;28;45759;-64
2023/04/17 02:11:30;;;;;;;;;9.00;7.75;;;;;12.48;48.42;101871.34;2099061;28;46150;-63
2023/04/17 02:12:30;;;;;;;;;9.00;6.25;;;;;12.48;48.36;101874.00;2093164;28;45548;-63
2023/04/17 02:13:30;;;;;;;;;9.25;8.00;;;;;12.45;48.42;101872.25;2087026;28;46541;-65
2023/04/17 02:14:31;;;;;;;;;7.00;7.00;;;;;12.46;48.60;101879.34;2087736;28;46543;-63
2023/04/17 02:15:31;;;;;;;;;7.25;7.25;;;;;12.45;48.65;101876.69;2087515;28;46231;-65
2023/04/17 02:16:31;;;;;;;;;5.25;5.25;;;;;12.45;48.59;101874.00;2087577;28;46225;-64
2023/04/17 02:17:32;;;;;;;;;7.00;6.75;;;;;12.44;48.58;101866.94;2096543;28;46250;-63
2023/04/17 02:18:32;;;;;;;;;6.00;6.00;;;;;12.43;48.63;101870.50;2096474;28;46296;-63
2023/04/17 02:19:32;;;;;;;;;7.00;6.50;;;;;12.43;48.80;101865.16;2096579;28;46136;-64
2023/04/17 02:20:34;;;;;;;;;7.00;7.00;;;;;12.42;48.82;101871.41;2099853;28;46131;-63
2023/04/17 02:21:34;;;;;;;;;10.40;7.20;;;;;12.43;48.79;101873.16;2104671;28;46207;-63
2023/04/17 02:22:34;;;;;;;;;6.75;6.75;;;;;12.42;48.85;101871.41;2103628;28;45664;-62
2023/04/17 02:23:35;;;;;;;;;8.00;7.25;;;;;12.42;48.94;101869.63;2102787;28;45911;-63
2023/04/17 02:24:35;;;;;;;;;7.75;6.75;;;;;12.41;48.85;101861.66;2096407;28;46297;-62
2023/04/17 02:25:36;;;;;;;;;9.50;9.00;;;;;12.39;48.89;101861.66;2096086;28;46571;-63
2023/04/17 02:26:36;;;;;;;;;6.75;6.50;;;;;12.38;48.98;101866.13;2096174;28;46724;-64
2023/04/17 02:27:36;;;;;;;;;9.50;8.00;;;;;12.37;48.92;101858.16;2096552;28;46398;-62
2023/04/17 02:28:37;;;;;;;;;8.25;7.00;;;;;12.37;49.02;101856.38;2096467;28;46747;-64
2023/04/17 02:29:37;;;;;;;;;7.00;7.00;;;;;12.37;49.06;101858.16;2092949;28;46186;-64
2023/04/17 02:30:38;;;;;;;;;8.25;8.25;;;;;12.36;48.97;101856.38;2097139;28;46315;-65
2023/04/17 02:31:40;;;;;;;;;8.00;8.00;;;;;12.34;49.07;101855.53;2096165;28;46730;-64
2023/04/17 02:32:40;;;;;;;;;7.00;7.00;;;;;12.33;48.93;101859.09;2087685;28;47130;-63
2023/04/17 02:33:40;;;;;;;;;9.00;8.00;;;;;12.33;49.09;101859.09;2087121;28;46647;-63
2023/04/17 02:34:41;;;;;;;;;7.00;6.00;;;;;12.32;49.34;101860.88;2096379;28;46023;-63
2023/04/17 02:35:41;;;;;;;;;6.50;6.50;;;;;12.31;49.15;101861.75;2096799;28;47567;-64
2023/04/17 02:36:42;;;;;;;;;7.75;7.00;;;;;12.31;49.20;101855.53;2096690;28;45778;-63
2023/04/17 02:37:42;;;;;;;;;9.00;9.00;;;;;12.32;49.06;101859.94;2096324;28;46357;-62
2023/04/17 02:38:42;;;;;;;;;6.00;6.00;;;;;12.30;48.97;101857.31;2096517;28;44893;-64
2023/04/17 02:39:42;;;;;;;;;7.00;6.50;;;;;12.30;49.12;101853.78;2097039;28;46673;-63
2023/04/17 02:40:43;;;;;;;;;7.50;7.50;;;;;12.30;49.41;101857.31;2104896;28;46541;-63
2023/04/17 02:41:43;;;;;;;;;7.50;7.25;;;;;12.29;49.06;101855.56;2099695;28;46640;-64
2023/04/17 02:42:43;;;;;;;;;6.75;6.75;;;;;12.29;49.05;101862.66;2096716;28;45061;-64
2023/04/17 02:43:44;;;;;;;;;3.50;3.50;;;;;12.28;48.78;101853.78;2097500;28;46293;-65
2023/04/17 02:44:45;;;;;;;;;10.50;8.00;;;;;12.28;49.20;101856.47;2096007;28;46913;-64
2023/04/17 02:45:45;;;;;;;;;9.20;7.00;;;;;12.28;49.20;101850.25;2096302;28;46511;-63
2023/04/17 02:46:46;;;;;;;;;7.00;7.00;;;;;12.28;49.21;101850.25;2098586;28;46245;-64
2023/04/17 02:47:47;;;;;;;;;11.75;11.75;;;;;12.27;49.15;101849.38;2096857;28;46870;-63
2023/04/17 02:48:47;;;;;;;;;7.80;7.40;;;;;12.26;49.27;101852.94;2105495;28;46291;-64
2023/04/17 02:49:48;;;;;;;;;7.75;7.75;;;;;12.26;49.49;101860.03;2100968;28;45594;-63
2023/04/17 02:50:48;;;;;;;;;7.00;7.00;;;;;12.24;49.27;101854.72;2096675;28;45808;-63
2023/04/17 02:51:48;;;;;;;;;7.25;7.25;;;;;12.26;49.17;101857.38;2096064;28;46076;-63
2023/04/17 02:52:48;;;;;;;;;6.50;6.00;;;;;12.25;49.33;101859.16;2096017;28;46213;-65
2023/04/17 02:53:49;;;;;;;;;9.25;8.00;;;;;12.26;49.34;101858.25;2096091;28;46351;-63
2023/04/17 02:54:49;;;;;;;;;6.75;6.75;;;;;12.24;49.44;101856.50;2098722;28;46386;-65
2023/04/17 02:55:50;;;;;;;;;10.00;9.00;;;;;12.23;49.41;101854.75;2096536;28;45493;-65
2023/04/17 02:56:51;;;;;;;;;5.75;5.75;;;;;12.21;49.51;101853.91;2096739;28;46270;-64
2023/04/17 02:57:52;;;;;;;;;7.60;6.80;;;;;12.21;49.40;101853.91;2100183;28;46568;-64
2023/04/17 02:58:52;;;;;;;;;7.00;7.00;;;;;12.20;49.42;101854.78;2096306;28;46736;-64
2023/04/17 02:59:52;;;;;;;;;10.00;9.50;;;;;12.20;49.34;101858.34;2096232;28;46677;-64
2023/04/17 03:01:00;;;;;;;;;8.00;8.00;;;;;12.20;49.38;101854.78;2095879;28;46718;-65
2023/04/17 03:02:02;;;;;;;;;7.80;6.80;;;;;12.19;49.60;101853.00;2096487;28;46524;-64
2023/04/17 03:03:02;;;;;;;;;7.00;7.00;;;;;12.20;49.51;101854.78;2096161;28;46401;-64
2023/04/17 03:04:03;;;;;;;;;7.75;7.75;;;;;12.19;49.70;101861.88;2092826;28;45980;-64
2023/04/17 03:05:04;;;;;;;;;12.00;9.25;;;;;12.19;49.53;101853.00;2096394;28;46021;-63
2023/04/17 03:06:04;;;;;;;;;9.00;8.60;;;;;12.17;49.54;101858.34;2101757;28;45553;-62
2023/04/17 03:07:05;;;;;;;;;9.00;8.00;;;;;12.17;49.55;101857.47;2085781;28;46891;-64
2023/04/17 03:08:06;;;;;;;;;8.80;8.80;;;;;12.15;49.63;101854.81;2086945;28;45784;-63
2023/04/17 03:09:06;;;;;;;;;8.50;8.50;;;;;12.16;49.65;101853.91;2084925;28;46715;-63
2023/04/17 03:10:08;;;;;;;;;7.75;7.75;;;;;12.15;49.73;101859.25;2078016;28;45159;-64
2023/04/17 03:11:08;;;;;;;;;8.00;8.00;;;;;12.16;49.67;101850.38;2088421;28;46350;-64
2023/04/17 03:12:08;;;;;;;;;12.75;9.75;;;;;12.14;49.73;101850.41;2102437;28;46206;-63
2023/04/17 03:13:09;;;;;;;;;5.25;3.25;;;;;12.15;49.82;101853.94;2096189;28;45631;-63
2023/04/17 03:14:09;;;;;;;;;9.25;8.25;;;;;12.13;49.80;101850.41;2096239;28;46564;-63
2023/04/17 03:15:10;;;;;;;;;8.00;8.00;;;;;12.13;49.95;101850.41;2096351;28;46871;-63
2023/04/17 03:16:10;;;;;;;;;8.50;6.00;;;;;12.12;49.78;101853.97;2095651;28;47023;-63
2023/04/17 03:17:12;;;;;;;;;9.00;9.00;;;;;12.10;49.98;101850.44;2096391;28;45847;-63
2023/04/17 03:18:13;;;;;;;;;9.40;9.40;;;;;12.07;49.84;101849.59;2080548;28;46548;-64
2023/04/17 03:19:13;;;;;;;;;8.50;8.50;;;;;12.07;49.78;101852.25;2088209;28;46712;-65
2023/04/17 03:20:14;;;;;;;;;9.25;9.25;;;;;12.06;49.91;101857.56;2096313;28;45621;-64
2023/04/17 03:21:15;;;;;;;;;7.80;7.80;;;;;12.04;49.96;101852.25;2104922;28;46414;-64
2023/04/17 03:22:15;;;;;;;;;11.50;9.75;;;;;12.03;50.11;101861.13;2098052;28;46281;-65
2023/04/17 03:23:16;;;;;;;;;9.00;9.00;;;;;12.02;50.21;101864.69;2088343;28;45789;-63
2023/04/17 03:24:16;;;;;;;;;10.00;9.00;;;;;12.01;50.02;101856.72;2088498;28;46531;-63
2023/04/17 03:25:16;;;;;;;;;8.00;8.00;;;;;12.00;50.13;101862.94;2079290;28;46634;-64
2023/04/17 03:26:17;;;;;;;;;7.25;7.25;;;;;11.99;50.04;101858.53;2080083;28;45863;-63
2023/04/17 03:27:23;;;;;;;;;7.75;7.75;;;;;12.00;50.16;101852.31;2097158;28;46846;-63
2023/04/17 03:28:23;;;;;;;;;10.80;10.80;;;;;12.00;50.13;101854.97;2097072;28;46483;-64
2023/04/17 03:29:24;;;;;;;;;5.50;5.50;;;;;11.98;50.09;101849.66;2097977;28;46515;-64
2023/04/17 03:30:24;;;;;;;;;10.25;10.25;;;;;11.97;50.22;101845.25;2103063;28;46864;-63
2023/04/17 03:31:26;;;;;;;;;8.75;8.75;;;;;11.97;50.49;101844.38;2105747;28;46971;-63
2023/04/17 03:32:27;;;;;;;;;9.40;9.40;;;;;11.95;50.33;101852.38;2097554;28;46413;-63
2023/04/17 03:33:27;;;;;;;;;6.75;6.50;;;;;11.94;50.13;101849.69;2097960;28;46440;-64
2023/04/17 03:34:28;;;;;;;;;10.00;10.00;;;;;11.93;50.28;101848.81;2097894;28;46248;-64
2023/04/17 03:35:28;;;;;;;;;9.00;9.00;;;;;11.93;50.54;101845.28;2097570;28;45937;-64
2023/04/17 03:36:29;;;;;;;;;9.25;9.25;;;;;11.93;50.55;101843.50;2097883;28;46409;-64
2023/04/17 03:37:31;;;;;;;;;9.25;9.25;;;;;11.94;50.37;101847.94;2097359;28;46494;-64
2023/04/17 03:38:32;;;;;;;;;10.80;10.80;;;;;11.94;50.52;101852.34;2097289;28;46436;-64
2023/04/17 03:39:32;;;;;;;;;8.60;8.60;;;;;11.94;50.48;101847.03;2097334;28;46531;-63
2023/04/17 03:40:33;;;;;;;;;11.50;11.50;;;;;11.94;50.62;101852.34;2097904;28;46262;-63
2023/04/17 03:41:33;;;;;;;;;12.00;10.50;;;;;11.94;50.56;101855.00;2092182;28;46473;-63
2023/04/17 03:42:33;;;;;;;;;11.00;10.00;;;;;11.93;50.75;101851.47;2096796;28;46358;-63
2023/04/17 03:43:34;;;;;;;;;10.75;10.75;;;;;11.93;50.60;101854.13;2105666;28;46279;-63
2023/04/17 03:44:34;;;;;;;;;11.75;11.50;;;;;11.94;50.87;101855.00;2094908;28;48157;-63
2023/04/17 03:45:35;;;;;;;;;10.00;10.00;;;;;11.96;50.66;101856.78;2088388;28;46311;-64
2023/04/17 03:46:36;;;;;;;;;9.50;9.25;;;;;11.96;50.76;101853.25;2095108;28;46894;-64
2023/04/17 03:47:36;;;;;;;;;7.40;7.40;;;;;11.96;50.65;101855.91;2097981;28;45187;-64
2023/04/17 03:48:37;;;;;;;;;12.25;12.25;;;;;11.96;50.77;101858.56;2089369;28;46193;-64
2023/04/17 03:49:37;;;;;;;;;10.25;10.25;;;;;11.96;50.60;101859.44;2088574;28;46249;-63
2023/04/17 03:50:37;;;;;;;;;6.00;4.75;;;;;11.96;50.82;101862.13;2096165;28;46286;-63
2023/04/17 03:51:38;;;;;;;;;13.25;10.75;;;;;11.95;50.84;101860.34;2096129;28;46793;-64
2023/04/17 03:52:38;;;;;;;;;9.75;9.25;;;;;11.97;50.78;101861.22;2088868;28;47002;-63
2023/04/17 03:53:38;;;;;;;;;10.25;9.00;;;;;11.95;50.89;101860.34;2086711;28;47046;-64
2023/04/17 03:54:39;;;;;;;;;11.50;9.00;;;;;11.94;50.95;101866.56;2096045;28;45814;-64
2023/04/17 03:55:39;;;;;;;;;10.00;9.00;;;;;11.94;50.88;101860.34;2091316;28;46408;-63
2023/04/17 03:56:40;;;;;;;;;8.75;8.75;;;;;11.93;50.83;101859.44;2087246;28;46195;-64
2023/04/17 03:57:40;;;;;;;;;10.00;9.00;;;;;11.93;50.87;101859.44;2088712;28;46674;-63
2023/04/17 03:58:40;;;;;;;;;10.75;10.75;;;;;11.94;50.99;101873.63;2085097;28;46381;-62
2023/04/17 03:59:40;;;;;;;;;9.50;9.50;;;;;11.94;50.89;101865.66;2080927;28;46866;-63
2023/04/17 04:00:41;;;;;;;;;11.25;10.75;;;;;11.92;51.08;101871.00;2083685;28;46071;-62
2023/04/17 04:01:41;;;;;;;;;8.50;8.50;;;;;11.92;50.97;101875.44;2086590;28;46565;-64
2023/04/17 04:02:42;;;;;;;;;10.75;10.00;;;;;11.92;51.09;101871.00;2083378;28;46172;-63
2023/04/17 04:03:42;;;;;;;;;10.00;10.00;;;;;11.91;51.22;101877.22;2088737;28;46501;-64
2023/04/17 04:04:43;;;;;;;;;8.75;8.75;;;;;11.91;51.08;101868.34;2089129;28;46447;-63
2023/04/17 04:05:43;;;;;;;;;10.75;10.75;;;;;11.90;51.26;101871.91;2089464;28;46760;-65
2023/04/17 04:06:43;;;;;;;;;10.50;9.50;;;;;11.89;51.16;101873.69;2085944;28;46435;-63
2023/04/17 04:07:44;;;;;;;;;10.25;9.00;;;;;11.88;51.32;101874.59;2080949;28;46749;-64
2023/04/17 04:08:45;;;;;;;;;10.25;10.25;;;;;11.87;51.14;101874.59;2087291;28;45954;-64
2023/04/17 04:09:45;;;;;;;;;12.75;11.00;;;;;11.85;51.20;101874.63;2088615;28;45629;-63
2023/04/17 04:10:45;;;;;;;;;10.25;10.25;;;;;11.84;51.30;101880.84;2089149;28;46694;-63
2023/04/17 04:11:46;;;;;;;;;15.00;15.00;;;;;11.83;51.29;101875.53;2089098;28;46468;-64
2023/04/17 04:12:46;;;;;;;;;11.00;9.00;;;;;11.79;51.42;101875.53;2089952;28;46336;-62
2023/04/17 04:13:47;;;;;;;;;12.00;12.00;;;;;11.79;51.20;101874.66;2089042;28;46328;-62
2023/04/17 04:14:47;;;;;;;;;11.25;11.25;;;;;11.79;51.41;101872.88;2088906;28;46853;-63
2023/04/17 04:15:48;;;;;;;;;12.00;9.50;;;;;11.78;51.45;101876.41;2088928;28;45576;-64
2023/04/17 04:16:48;;;;;;;;;9.50;9.50;;;;;11.77;51.47;101871.97;2088328;28;47029;-64
2023/04/17 04:17:49;;;;;;;;;10.00;8.75;;;;;11.75;51.52;101876.44;2089120;28;46270;-64
2023/04/17 04:18:49;;;;;;;;;10.75;10.75;;;;;11.75;51.40;101868.44;2088525;28;46587;-66
2023/04/17 04:19:49;;;;;;;;;11.00;11.00;;;;;11.75;51.44;101872.88;2088353;28;46763;-63
2023/04/17 04:20:50;;;;;;;;;11.00;10.50;;;;;11.74;51.62;101874.66;2088896;28;46253;-64
2023/04/17 04:21:52;;;;;;;;;12.00;12.00;;;;;11.75;51.46;101870.22;2088415;28;46634;-63
2023/04/17 04:22:56;;;;;;;;;11.80;10.20;;;;;11.72;51.51;101871.13;2088697;28;45611;-63
2023/04/17 04:23:56;;;;;;;;;12.00;12.00;;;;;11.71;51.48;101872.03;2088383;28;46601;-64
2023/04/17 04:24:56;;;;;;;;;12.25;11.50;;;;;11.71;51.70;101874.69;2088642;28;46670;-66
2023/04/17 04:26:00;;;;;;;;;11.00;11.00;;;;;11.71;51.63;101877.34;2089182;28;45907;-64
2023/04/17 04:27:03;;;;;;;;;9.00;9.00;;;;;11.72;51.51;101879.13;2087369;28;46277;-64
2023/04/17 04:28:04;;;;;;;;;9.00;9.00;;;;;11.73;51.94;101874.69;2084973;28;46055;-64
2023/04/17 04:29:04;;;;;;;;;11.75;11.75;;;;;11.72;51.77;101876.47;2094084;28;46041;-63
2023/04/17 04:30:05;;;;;;;;;12.00;12.00;;;;;11.72;52.19;101873.81;2079581;28;46271;-64
2023/04/17 04:31:06;;;;;;;;;12.00;12.00;;;;;11.71;51.99;101868.50;2079705;28;45759;-64
2023/04/17 04:32:08;;;;;;;;;11.40;10.40;;;;;11.72;52.11;101867.59;2087736;28;45293;-65
2023/04/17 04:33:08;;;;;;;;;14.60;12.40;;;;;11.71;51.83;101876.47;2088132;28;45300;-63
2023/04/17 04:34:09;;;;;;;;;13.50;13.50;;;;;11.70;51.94;101875.59;2085672;28;46757;-64
2023/04/17 04:35:14;;;;;;;;;11.00;10.20;;;;;11.70;52.09;101877.38;2078601;28;46761;-62
2023/04/17 04:36:19;;;;;;;;;11.80;11.80;;;;;11.70;52.05;101880.91;2085459;28;46863;-62
2023/04/17 04:37:20;;;;;;;;;11.60;10.80;;;;;11.69;52.02;101881.81;2087530;28;46344;-65
2023/04/17 04:38:28;;;;;;;;;10.80;9.80;;;;;11.68;52.20;101874.69;2087887;28;47231;-65
2023/04/17 04:39:28;;;;;;;;;10.80;9.80;;;;;11.70;52.00;101880.91;2087632;28;46000;-64
2023/04/17 04:40:34;;;;;;;;;12.50;12.50;;;;;11.70;52.23;101883.56;2087951;28;46510;-64
2023/04/17 04:41:35;;;;;;;;;12.80;11.40;;;;;11.70;52.26;101882.69;2087891;28;46066;-63